createdAt,value
2018-09-03T00:01:02.532Z,17.10
2018-09-03T00:03:36.429Z,17.10
2018-09-03T00:06:10.457Z,17.00
2018-09-03T00:08:44.361Z,16.90
2018-09-03T00:11:18.449Z,17.00
2018-09-03T00:13:52.488Z,17.00
2018-09-03T00:16:27.340Z,17.00
2018-09-03T00:19:01.218Z,17.10
2018-09-03T00:21:35.319Z,17.10
2018-09-03T00:24:09.332Z,17.20
2018-09-03T00:26:43.421Z,17.10
2018-09-03T00:29:17.480Z,17.10
2018-09-03T00:31:52.334Z,17.30
2018-09-03T00:34:26.176Z,17.20
2018-09-03T00:37:00.201Z,17.30
2018-09-03T00:39:34.240Z,17.10
2018-09-03T00:42:08.223Z,17.30
2018-09-03T00:44:42.352Z,17.40
2018-09-03T00:47:16.361Z,17.30
2018-09-03T00:49:50.381Z,17.30
2018-09-03T00:52:24.389Z,17.40
2018-09-03T00:54:58.434Z,17.30
2018-09-03T00:57:32.448Z,17.10
2018-09-03T01:00:06.280Z,17.10
2018-09-03T01:02:40.326Z,17.20
2018-09-03T01:05:14.322Z,17.20
2018-09-03T01:07:48.975Z,17.10
2018-09-03T01:10:23.719Z,17.10
2018-09-03T01:12:57.781Z,17.10
2018-09-03T01:15:31.792Z,17.20
2018-09-03T01:18:05.815Z,17.40
2018-09-03T01:20:39.928Z,17.40
2018-09-03T01:23:14.068Z,17.20
2018-09-03T01:25:48.183Z,17.20
2018-09-03T01:28:22.281Z,17.20
2018-09-03T01:30:56.261Z,17.10
2018-09-03T01:33:31.050Z,17.10
2018-09-03T01:36:05.117Z,17.10
2018-09-03T01:38:39.235Z,17.20
2018-09-03T01:41:13.240Z,17.40
2018-09-03T01:43:47.185Z,17.40
2018-09-03T01:46:21.202Z,17.40
2018-09-03T01:48:55.297Z,17.30
2018-09-03T01:51:29.289Z,17.30
2018-09-03T01:54:03.344Z,17.40
2018-09-03T01:56:37.414Z,17.30
2018-09-03T01:59:11.377Z,17.20
2018-09-03T02:01:45.440Z,17.30
2018-09-03T02:04:19.489Z,17.20
2018-09-03T02:06:53.375Z,17.30
2018-09-03T02:09:27.413Z,17.40
2018-09-03T02:12:01.402Z,17.20
2018-09-03T02:14:35.449Z,17.30
2018-09-03T02:17:09.511Z,17.20
2018-09-03T02:19:44.422Z,17.20
2018-09-03T02:22:18.441Z,17.20
2018-09-03T02:24:52.445Z,17.20
2018-09-03T02:27:26.577Z,17.10
2018-09-03T02:30:00.588Z,17.00
2018-09-03T02:32:35.449Z,16.90
2018-09-03T02:35:10.053Z,17.00
2018-09-03T02:37:43.994Z,16.90
2018-09-03T02:40:18.066Z,17.10
2018-09-03T02:42:52.160Z,17.10
2018-09-03T02:45:26.120Z,17.10
2018-09-03T02:48:00.258Z,17.10
2018-09-03T02:54:02.369Z,17.10
2018-09-03T02:56:36.341Z,17.10
2018-09-03T02:59:10.293Z,16.90
2018-09-03T03:01:44.284Z,17.00
2018-09-03T03:04:18.321Z,16.90
2018-09-03T03:06:53.181Z,16.90
2018-09-03T03:09:27.252Z,16.90
2018-09-03T03:12:01.417Z,16.90
2018-09-03T03:14:35.576Z,16.90
2018-09-03T03:17:09.628Z,16.90
2018-09-03T03:19:43.591Z,16.90
2018-09-03T03:22:17.527Z,16.90
2018-09-03T03:24:51.622Z,17.10
2018-09-03T03:27:25.586Z,17.00
2018-09-03T03:29:59.650Z,17.10
2018-09-03T03:32:34.509Z,17.20
2018-09-03T03:35:08.473Z,17.20
2018-09-03T03:37:42.509Z,17.10
2018-09-03T03:40:16.610Z,17.20
2018-09-03T03:42:50.621Z,17.00
2018-09-03T03:45:25.457Z,16.90
2018-09-03T03:47:59.480Z,16.90
2018-09-03T03:50:33.414Z,16.90
2018-09-03T03:53:07.481Z,16.90
2018-09-03T03:55:41.589Z,16.70
2018-09-03T03:58:15.640Z,16.80
2018-09-03T04:00:49.621Z,16.80
2018-09-03T04:03:23.733Z,16.90
2018-09-03T04:05:57.797Z,16.80
2018-09-03T04:08:31.888Z,16.90
2018-09-03T04:11:05.877Z,17.00
2018-09-03T04:13:39.893Z,17.00
2018-09-03T04:16:14.009Z,17.00
2018-09-03T04:18:48.057Z,17.00
2018-09-03T04:21:22.025Z,17.10
2018-09-03T04:23:55.978Z,17.00
2018-09-03T04:26:30.001Z,16.90
2018-09-03T04:29:04.087Z,16.90
2018-09-03T04:31:38.773Z,17.00
2018-09-03T04:34:12.677Z,17.00
2018-09-03T04:36:46.691Z,16.90
2018-09-03T04:39:21.377Z,16.80
2018-09-03T04:41:55.427Z,16.80
2018-09-03T04:44:29.543Z,16.80
2018-09-03T04:47:03.660Z,16.60
2018-09-03T04:49:37.738Z,16.60
2018-09-03T04:52:12.496Z,16.70
2018-09-03T04:54:47.248Z,16.70
2018-09-03T04:57:21.110Z,16.70
2018-09-03T04:59:55.149Z,16.70
2018-09-03T05:02:29.192Z,16.70
2018-09-03T05:05:03.297Z,16.70
2018-09-03T05:07:37.193Z,16.60
2018-09-03T05:10:11.291Z,16.70
2018-09-03T05:12:45.398Z,16.80
2018-09-03T05:15:20.239Z,16.80
2018-09-03T05:17:54.229Z,16.80
2018-09-03T05:20:28.272Z,16.80
2018-09-03T05:23:02.311Z,16.90
2018-09-03T05:25:36.394Z,17.00
2018-09-03T05:28:10.434Z,17.10
2018-09-03T05:30:44.468Z,17.10
2018-09-03T05:33:19.332Z,17.20
2018-09-03T05:35:53.280Z,17.20
2018-09-03T05:38:27.345Z,17.30
2018-09-03T05:41:01.390Z,17.50
2018-09-03T05:43:35.730Z,17.50
2018-09-03T05:46:09.630Z,17.60
2018-09-03T05:48:44.485Z,17.60
2018-09-03T05:51:18.522Z,17.60
2018-09-03T05:53:52.603Z,17.70
2018-09-03T05:56:26.645Z,17.60
2018-09-03T05:59:00.791Z,17.50
2018-09-03T06:01:34.706Z,17.50
2018-09-03T06:04:08.825Z,17.50
2018-09-03T06:06:42.758Z,17.70
2018-09-03T06:09:16.884Z,17.70
2018-09-03T06:11:50.781Z,17.70
2018-09-03T06:14:24.865Z,17.80
2018-09-03T06:16:58.857Z,17.90
2018-09-03T06:19:32.961Z,17.80
2018-09-03T06:22:07.303Z,17.80
2018-09-03T06:24:41.358Z,17.80
2018-09-03T06:27:15.458Z,17.80
2018-09-03T06:29:49.360Z,17.80
2018-09-03T06:32:24.201Z,17.80
2018-09-03T06:34:58.318Z,17.80
2018-09-03T06:37:32.234Z,17.80
2018-09-03T06:40:06.342Z,18.10
2018-09-03T06:42:40.549Z,18.40
2018-09-03T06:45:14.524Z,18.30
2018-09-03T06:47:48.431Z,18.00
2018-09-03T06:50:22.420Z,18.20
2018-09-03T06:52:56.433Z,18.30
2018-09-03T06:55:30.549Z,18.30
2018-09-03T06:58:05.227Z,18.70
2018-09-03T07:00:39.310Z,18.60
2018-09-03T07:03:13.368Z,18.70
2018-09-03T07:05:47.479Z,18.80
2018-09-03T07:08:21.550Z,18.80
2018-09-03T07:10:55.508Z,18.80
2018-09-03T07:13:29.481Z,19.10
2018-09-03T07:16:03.434Z,18.90
2018-09-03T07:18:38.186Z,19.00
2018-09-03T07:21:12.270Z,19.00
2018-09-03T07:23:46.393Z,19.00
2018-09-03T07:26:20.383Z,19.00
2018-09-03T07:28:55.128Z,18.80
2018-09-03T07:31:29.321Z,18.70
2018-09-03T07:34:03.336Z,18.70
2018-09-03T07:36:37.461Z,18.60
2018-09-03T07:39:11.420Z,18.60
2018-09-03T07:41:45.506Z,18.80
2018-09-03T07:44:19.650Z,18.60
2018-09-03T07:46:53.732Z,18.70
2018-09-03T07:49:27.629Z,18.90
2018-09-03T07:52:01.609Z,19.10
2018-09-03T07:54:35.590Z,19.20
2018-09-03T07:57:09.549Z,19.20
2018-09-03T07:59:43.717Z,19.10
2018-09-03T08:02:17.856Z,19.30
2018-09-03T08:04:51.748Z,19.10
2018-09-03T08:07:25.679Z,19.40
2018-09-03T08:09:59.808Z,19.50
2018-09-03T08:12:33.889Z,19.70
2018-09-03T08:15:07.808Z,19.60
2018-09-03T08:17:41.917Z,19.70
2018-09-03T08:20:16.074Z,19.70
2018-09-03T08:22:50.766Z,20.00
2018-09-03T08:25:24.826Z,19.90
2018-09-03T08:27:58.718Z,19.80
2018-09-03T08:30:32.766Z,19.60
2018-09-03T08:33:06.925Z,19.70
2018-09-03T08:35:40.982Z,19.70
2018-09-03T08:38:15.011Z,19.90
2018-09-03T08:40:48.944Z,20.00
2018-09-03T08:43:23.056Z,20.30
2018-09-03T08:45:57.797Z,20.70
2018-09-03T08:48:31.900Z,20.70
2018-09-03T08:53:46.969Z,21.00
2018-09-03T08:56:21.041Z,21.00
2018-09-03T08:58:54.941Z,21.00
2018-09-03T09:01:29.008Z,21.30
2018-09-03T09:04:03.876Z,21.00
2018-09-03T09:06:37.964Z,21.00
2018-09-03T09:09:12.066Z,21.20
2018-09-03T09:11:46.094Z,22.10
2018-09-03T09:14:20.198Z,22.20
2018-09-03T09:16:54.258Z,22.20
2018-09-03T09:19:29.059Z,21.70
2018-09-03T09:22:03.870Z,21.50
2018-09-03T09:24:37.975Z,21.50
2018-09-03T09:27:12.000Z,21.60
2018-09-03T09:29:45.963Z,21.90
2018-09-03T09:32:20.033Z,22.10
2018-09-03T09:34:53.984Z,22.40
2018-09-03T09:37:28.065Z,22.60
2018-09-03T09:40:02.142Z,22.40
2018-09-03T09:42:36.054Z,22.40
2018-09-03T09:45:10.125Z,22.60
2018-09-03T09:47:44.930Z,22.30
2018-09-03T09:50:19.009Z,22.30
2018-09-03T09:52:53.137Z,22.30
2018-09-03T09:55:27.270Z,22.40
2018-09-03T09:58:02.222Z,23.00
2018-09-03T10:00:37.320Z,22.70
2018-09-03T10:03:11.645Z,22.70
2018-09-03T10:05:45.869Z,22.60
2018-09-03T10:08:20.137Z,22.80
2018-09-03T10:10:54.387Z,22.60
2018-09-03T10:13:28.394Z,22.70
2018-09-03T10:16:02.344Z,22.30
2018-09-03T10:18:36.485Z,22.50
2018-09-03T10:21:11.382Z,22.90
2018-09-03T10:23:46.126Z,23.40
2018-09-03T10:26:20.253Z,23.40
2018-09-03T10:28:54.284Z,23.60
2018-09-03T10:31:28.415Z,23.30
2018-09-03T10:34:02.433Z,22.80
2018-09-03T10:36:36.435Z,22.90
2018-09-03T10:39:10.713Z,23.10
2018-09-03T10:41:44.724Z,23.40
2018-09-03T10:44:18.877Z,23.00
2018-09-03T10:46:52.974Z,23.10
2018-09-03T10:49:27.256Z,22.90
2018-09-03T10:52:01.387Z,23.00
2018-09-03T10:54:35.560Z,22.80
2018-09-03T10:57:09.564Z,22.60
2018-09-03T10:59:43.777Z,22.90
2018-09-03T11:02:17.987Z,23.30
2018-09-03T11:04:52.249Z,23.90
2018-09-03T11:07:27.246Z,24.00
2018-09-03T11:10:01.366Z,24.00
2018-09-03T11:12:36.474Z,24.20
2018-09-03T11:15:10.426Z,24.20
2018-09-03T11:17:44.541Z,24.20
2018-09-03T11:20:18.676Z,23.90
2018-09-03T11:22:53.453Z,23.90
2018-09-03T11:25:28.261Z,23.80
2018-09-03T11:28:02.958Z,23.60
2018-09-03T11:30:37.137Z,23.60
2018-09-03T11:33:11.363Z,23.60
2018-09-03T11:35:45.487Z,23.60
2018-09-03T11:38:19.392Z,23.60
2018-09-03T11:40:53.640Z,24.40
2018-09-03T11:43:27.603Z,24.00
2018-09-03T11:46:01.634Z,24.00
2018-09-03T11:48:35.685Z,24.30
2018-09-03T11:51:09.739Z,24.50
2018-09-03T11:53:44.615Z,24.20
2018-09-03T11:56:18.767Z,24.10
2018-09-03T11:58:53.683Z,24.00
2018-09-03T12:01:27.965Z,24.00
2018-09-03T12:04:02.697Z,24.30
2018-09-03T12:06:36.986Z,24.30
2018-09-03T12:09:10.911Z,24.30
2018-09-03T12:11:45.176Z,24.00
2018-09-03T12:14:19.293Z,24.00
2018-09-03T12:16:53.552Z,24.20
2018-09-03T12:19:27.568Z,24.00
2018-09-03T12:22:01.816Z,24.30
2018-09-03T12:24:35.796Z,24.20
2018-09-03T12:27:10.522Z,23.50
2018-09-03T12:29:44.681Z,23.40
2018-09-03T12:32:19.034Z,23.60
2018-09-03T12:34:53.264Z,23.70
2018-09-03T12:37:27.282Z,23.60
2018-09-03T12:40:01.410Z,23.60
2018-09-03T12:42:36.686Z,23.30
2018-09-03T12:45:11.020Z,23.30
2018-09-03T12:47:45.281Z,23.60
2018-09-03T12:50:19.320Z,23.50
2018-09-03T12:52:53.812Z,23.80
2018-09-03T12:55:28.549Z,24.30
2018-09-03T12:58:02.896Z,24.30
2018-09-03T13:00:38.679Z,24.10
2018-09-03T13:03:12.187Z,24.30
2018-09-03T13:05:46.278Z,24.30
2018-09-03T13:08:20.557Z,23.90
2018-09-03T13:10:54.568Z,23.70
2018-09-03T13:13:28.748Z,23.30
2018-09-03T13:16:03.701Z,23.60
2018-09-03T13:18:38.057Z,23.60
2018-09-03T13:21:12.231Z,24.20
2018-09-03T13:23:46.239Z,24.10
2018-09-03T13:26:21.078Z,23.80
2018-09-03T13:28:55.376Z,23.80
2018-09-03T13:31:29.513Z,23.70
2018-09-03T13:34:04.358Z,23.70
2018-09-03T13:36:38.430Z,23.70
2018-09-03T13:39:12.471Z,23.50
2018-09-03T13:41:46.646Z,23.70
2018-09-03T13:44:21.965Z,23.80
2018-09-03T13:46:57.113Z,24.00
2018-09-03T13:49:31.159Z,23.90
2018-09-03T13:52:06.107Z,23.80
2018-09-03T13:54:41.002Z,24.20
2018-09-03T13:57:15.106Z,24.20
2018-09-03T13:59:49.372Z,24.20
2018-09-03T14:02:23.533Z,24.50
2018-09-03T14:04:57.766Z,24.80
2018-09-03T14:07:31.855Z,24.90
2018-09-03T14:10:05.985Z,24.70
2018-09-03T14:12:40.142Z,24.90
2018-09-03T14:15:14.185Z,25.30
2018-09-03T14:17:48.381Z,25.50
2018-09-03T14:20:22.521Z,25.10
2018-09-03T14:22:57.411Z,24.50
2018-09-03T14:25:33.385Z,24.60
2018-09-03T14:28:08.362Z,24.80
2018-09-03T14:30:43.077Z,24.90
2018-09-03T14:33:17.032Z,24.90
2018-09-03T14:35:51.186Z,24.90
2018-09-03T14:38:26.756Z,25.10
2018-09-03T14:41:01.112Z,25.10
2018-09-03T14:43:36.044Z,24.90
2018-09-03T14:46:10.036Z,24.90
2018-09-03T14:48:44.307Z,25.00
2018-09-03T14:51:18.669Z,24.70
2018-09-03T14:53:52.863Z,24.80
2018-09-03T14:56:27.286Z,24.80
2018-09-03T14:59:01.427Z,24.90
2018-09-03T15:01:35.521Z,25.10
2018-09-03T15:04:10.394Z,24.70
2018-09-03T15:06:44.526Z,24.70
2018-09-03T15:09:18.702Z,25.30
2018-09-03T15:11:53.098Z,25.40
2018-09-03T15:14:27.723Z,25.10
2018-09-03T15:17:01.794Z,25.20
2018-09-03T15:19:35.771Z,24.60
2018-09-03T15:22:10.107Z,24.40
2018-09-03T15:24:44.352Z,24.40
2018-09-03T15:27:18.557Z,24.60
2018-09-03T15:29:53.660Z,24.70
2018-09-03T15:32:27.826Z,24.70
2018-09-03T15:35:02.078Z,25.30
2018-09-03T15:37:36.422Z,26.00
2018-09-03T15:40:11.414Z,26.50
2018-09-03T15:42:46.111Z,27.00
2018-09-03T15:45:20.342Z,26.90
2018-09-03T15:47:54.277Z,26.90
2018-09-03T15:50:28.605Z,25.50
2018-09-03T15:53:02.598Z,25.50
2018-09-03T15:55:36.678Z,25.30
2018-09-03T15:58:10.833Z,25.40
2018-09-03T16:00:44.977Z,25.10
2018-09-03T16:03:19.448Z,24.90
2018-09-03T16:05:53.397Z,24.80
2018-09-03T16:08:27.517Z,24.60
2018-09-03T16:11:02.538Z,24.50
2018-09-03T16:13:37.420Z,24.40
2018-09-03T16:16:12.305Z,24.50
2018-09-03T16:18:46.715Z,24.50
2018-09-03T16:21:21.787Z,24.80
2018-09-03T16:23:55.953Z,24.70
2018-09-03T16:26:30.102Z,24.40
2018-09-03T16:29:04.221Z,24.10
2018-09-03T16:31:38.276Z,23.90
2018-09-03T16:34:12.464Z,24.00
2018-09-03T16:36:47.281Z,23.70
2018-09-03T16:39:21.469Z,23.70
2018-09-03T16:41:55.557Z,23.70
2018-09-03T16:44:29.733Z,23.80
2018-09-03T16:47:03.695Z,23.60
2018-09-03T16:49:38.322Z,23.60
2018-09-03T16:52:12.266Z,23.60
2018-09-03T16:54:46.328Z,23.60
2018-09-03T16:57:20.459Z,24.00
2018-09-03T16:59:54.440Z,24.00
2018-09-03T17:02:28.536Z,23.80
2018-09-03T17:05:02.641Z,23.60
2018-09-03T17:07:36.885Z,23.40
2018-09-03T17:10:10.786Z,23.30
2018-09-03T17:12:45.830Z,23.30
2018-09-03T17:15:20.128Z,23.10
2018-09-03T17:17:54.264Z,23.20
2018-09-03T17:20:28.554Z,22.80
2018-09-03T17:23:03.474Z,22.60
2018-09-03T17:25:38.774Z,22.60
2018-09-03T17:28:12.967Z,22.60
2018-09-03T17:30:48.006Z,22.70
2018-09-03T17:33:22.270Z,22.70
2018-09-03T17:35:56.344Z,22.50
2018-09-03T17:38:31.404Z,22.40
2018-09-03T17:41:05.437Z,22.30
2018-09-03T17:46:59.329Z,22.20
2018-09-03T17:49:33.327Z,22.20
2018-09-03T17:52:07.291Z,22.20
2018-09-03T17:54:42.198Z,22.20
2018-09-03T17:57:16.342Z,22.20
2018-09-03T17:59:50.465Z,22.20
2018-09-03T18:02:25.287Z,21.80
2018-09-03T18:05:00.090Z,21.70
2018-09-03T18:07:34.221Z,21.70
2018-09-03T18:10:08.321Z,21.60
2018-09-03T18:12:43.042Z,21.50
2018-09-03T18:15:17.153Z,21.50
2018-09-03T18:17:51.066Z,21.40
2018-09-03T18:20:25.165Z,21.30
2018-09-03T18:22:59.213Z,21.40
2018-09-03T18:25:33.169Z,21.40
2018-09-03T18:28:07.464Z,21.40
2018-09-03T18:30:41.521Z,21.30
2018-09-03T18:33:15.693Z,21.40
2018-09-03T18:35:49.716Z,21.40
2018-09-03T18:38:23.753Z,21.40
2018-09-03T18:40:57.890Z,21.40
2018-09-03T18:43:31.781Z,21.30
2018-09-03T18:46:05.984Z,21.30
2018-09-03T18:48:40.846Z,21.40
2018-09-03T18:51:14.865Z,21.30
2018-09-03T18:53:48.854Z,21.30
2018-09-03T18:56:22.943Z,21.40
2018-09-03T18:58:56.889Z,21.40
2018-09-03T19:01:31.008Z,21.40
2018-09-03T19:04:05.387Z,21.40
2018-09-03T19:06:39.299Z,21.40
2018-09-03T19:09:14.268Z,21.40
2018-09-03T19:11:48.274Z,21.30
2018-09-03T19:14:22.382Z,21.30
2018-09-03T19:16:56.370Z,21.20
2018-09-03T19:19:30.429Z,21.30
2018-09-03T19:22:13.039Z,21.20
2018-09-03T19:24:47.208Z,21.20
2018-09-03T19:27:21.496Z,21.00
2018-09-03T19:29:55.546Z,21.00
2018-09-03T19:32:30.302Z,21.10
2018-09-03T19:35:08.883Z,21.10
2018-09-03T19:37:43.000Z,21.10
2018-09-03T19:40:18.055Z,21.10
2018-09-03T19:42:52.027Z,21.20
2018-09-03T19:45:26.201Z,21.30
2018-09-03T19:48:00.477Z,21.40
2018-09-03T19:50:35.280Z,21.30
2018-09-03T19:53:12.472Z,21.30
2018-09-03T19:55:48.883Z,21.20
2018-09-03T19:58:24.567Z,21.10
2018-09-03T20:00:59.634Z,21.00
2018-09-03T20:03:33.606Z,20.90
2018-09-03T20:06:07.735Z,20.70
2018-09-03T20:08:42.495Z,20.80
2018-09-03T20:11:16.623Z,20.80
2018-09-03T20:13:50.733Z,20.80
2018-09-03T20:16:25.604Z,20.80
2018-09-03T20:18:59.697Z,20.70
2018-09-03T20:21:33.714Z,20.80
2018-09-03T20:24:18.226Z,20.70
2018-09-03T20:26:52.797Z,20.80
2018-09-03T20:29:26.769Z,20.80
2018-09-03T20:32:00.964Z,20.80
2018-09-03T20:34:35.227Z,20.70
2018-09-03T20:37:09.413Z,20.70
2018-09-03T20:39:44.325Z,20.50
2018-09-03T20:42:18.497Z,20.50
2018-09-03T20:44:53.369Z,20.60
2018-09-03T20:47:27.365Z,20.60
2018-09-03T20:50:01.367Z,20.70
2018-09-03T20:52:37.243Z,20.50
2018-09-03T20:55:11.279Z,20.60
2018-09-03T20:57:46.042Z,20.70
2018-09-03T21:00:20.122Z,20.70
2018-09-03T21:02:55.017Z,20.70
2018-09-03T21:05:29.221Z,20.70
2018-09-03T21:08:03.281Z,20.80
2018-09-03T21:10:37.446Z,20.50
2018-09-03T21:13:11.535Z,20.60
2018-09-03T21:15:46.357Z,20.60
2018-09-03T21:18:20.554Z,20.50
2018-09-03T21:20:54.924Z,20.50
2018-09-03T21:23:28.902Z,20.50
2018-09-03T21:26:02.942Z,20.40
2018-09-03T21:28:37.027Z,20.50
2018-09-03T21:31:11.173Z,20.40
2018-09-03T21:33:46.116Z,20.30
2018-09-03T21:36:20.922Z,20.00
2018-09-03T21:38:55.810Z,20.00
2018-09-03T21:41:29.897Z,20.00
2018-09-03T21:44:03.861Z,20.10
2018-09-03T21:46:37.929Z,20.30
2018-09-03T21:49:11.993Z,20.30
2018-09-03T21:51:46.045Z,20.20
2018-09-03T21:54:20.100Z,20.30
2018-09-03T21:56:54.160Z,20.40
2018-09-03T21:59:31.217Z,20.30
2018-09-03T22:02:05.911Z,20.70
2018-09-03T22:04:45.532Z,20.70
2018-09-03T22:07:19.754Z,20.80
2018-09-03T22:09:53.772Z,20.80
2018-09-03T22:12:29.643Z,21.10
2018-09-03T22:15:03.753Z,21.00
2018-09-03T22:17:37.907Z,21.10
2018-09-03T22:20:11.992Z,21.30
2018-09-03T22:22:46.062Z,21.20
2018-09-03T22:25:20.147Z,21.10
2018-09-03T22:27:54.056Z,21.20
2018-09-03T22:30:28.020Z,20.90
2018-09-03T22:33:03.720Z,20.90
2018-09-03T22:35:38.473Z,21.30
2018-09-03T22:38:12.616Z,21.30
2018-09-03T22:40:46.732Z,21.30
2018-09-03T22:43:20.794Z,21.40
2018-09-03T22:45:54.894Z,21.40
2018-09-03T22:48:28.998Z,21.40
2018-09-03T22:51:03.030Z,21.30
2018-09-03T22:53:37.136Z,21.10
2018-09-03T22:56:16.497Z,21.30
2018-09-03T22:58:50.489Z,21.40
2018-09-03T23:01:24.572Z,21.50
2018-09-03T23:03:58.634Z,21.50
2018-09-03T23:06:32.605Z,21.50
2018-09-03T23:09:06.761Z,21.40
2018-09-03T23:11:40.833Z,21.40
2018-09-03T23:14:14.976Z,21.50
2018-09-03T23:16:49.132Z,21.40
2018-09-03T23:19:31.757Z,21.50
2018-09-03T23:22:05.776Z,21.50
2018-09-03T23:24:39.714Z,21.50
2018-09-03T23:27:14.541Z,21.50
2018-09-03T23:29:48.681Z,21.50
2018-09-03T23:32:22.645Z,21.30
2018-09-03T23:34:56.566Z,21.10
2018-09-03T23:37:31.388Z,20.60
2018-09-03T23:40:05.561Z,20.60
2018-09-03T23:42:41.949Z,20.30
2018-09-03T23:45:16.025Z,20.60
2018-09-03T23:47:50.175Z,20.50
2018-09-03T23:50:24.082Z,20.50
2018-09-03T23:52:58.112Z,20.70
2018-09-03T23:55:32.114Z,20.90
2018-09-03T23:58:06.128Z,20.90
